KSYR/SYR METAR and TAF weather

Enter ICAO airport designator
Station Type Date Time Source
KSYR METAR 2021/04/13 22:54 UTC NOAA

KSYR 132254Z 00000KT 10SM FEW050 SCT100 BKN250 17/03 A3004 RMK AO2 SLP169 T01670033


Station Type Date Time Source
KSYR Decoded METAR 2021/04/13 22:54 UTC NOAA

SYRACUSE HANCOCK INTERNATIONAL AIRPORT , NY, United States (KSYR) 43-07N 76-06W 127M
Apr 13, 2021 - 06:54 PM EDT / 2021.04.13 2254 UTC
Wind: Calm:0
Visibility: 10 mile(s):0
Sky conditions: mostly cloudy
Temperature: 62.1 F (16.7 C)
Dew Point: 37.9 F (3.3 C)
Relative Humidity: 40%
Pressure (altimeter): 30.04 in. Hg (1017 hPa)
ob: KSYR 132254Z 00000KT 10SM FEW050 SCT100 BKN250 17/03 A3004 RMK AO2 SLP169 T01670033
cycle: 23

Station Type Date Time Source
KSYR TAF 2021/04/13 18:36 UTC NOAA

KSYR 131732Z 1318/1418 10003KT P6SM SCT060 SCT200
FM132000 02005KT P6SM SCT060 SCT120
FM140800 00000KT 6SM BR FEW200
FM141200 23003KT P6SM FEW250

Example: see airport list